Decoded Metar for KBFM (MOBILE in AL, USA) (IATA:BFM) | Meteo·Mobile Aviation Weather
aviador You're here:

KBFM Decoded Metar

MOBILE in AL, USA
Report Time2019-04-25 21:48:00
UTC Time2019-04-25 21:59:24
Flight Rules ifr IFR
Wind010° at 08 kt
W.Decomp.*RWY 36: 7.9 kt HW 1.5 kt RCW
RWY 32: 5.0 kt HW 6.2 kt RCW
Visibility4023 m
Phenomena:Thuderstorm Rain
Clouds:Few 010 Hf
Broken 022 Hf
Overcast 027 Hf
Expected CloudBase > 400 ft AGL from Temp-Dew spread
Ceiling2,200 ft
Temp19°C (ISA +4)
Dew Point18°C (94% RH)
AAT18.9°C
QNH1011 hPa
Density Alt892 ft
Elevation66 ft
Report Wrong Elevation
Raw Report
KBFM 252148Z 01008KT 2 1/2SM TSRA FEW010 BKN022 OVC027 19/18 A2985
RMK AO2 LTG DSNT NE AND S AND SW TSB19E46B48 P0030=

Extra information for KBFM:More info

Metar Taf Metar & Taf Last 4 Metars F.Rules Stats Wind Profile Meteogram Temp Stats Airport Information Weather charts Add Link Nearby VenuesMetar ALERT Operation Metar Decoded Social comments

AIRNAV info for KBFM